Timeline UpdatesTrip UpdatesNews PostsPvt Posts♥♥Travel TipsAdmin PostsConv PostsFollowed PostsChat RequestsBlog PostsPNR Posts

Disclaimer
Search
 
 
Thu Oct 23, 2014 07:51:26 ISTHomeTrainsΣChainsAtlasPNRForumGalleryNewsFAQTripsMembersLoginFeedback
No Recent News for this Train
Other Trains in the News **new
Latest...
..
Tue Aug 26, 2014 (08:49PM)
⇐ Return Journey: Train# 13134

13133/Sealdah - Varanasi (Upper India) Express

Time-Table HAS CHANGED.
Sep 03 2014 (2:44PM)
Change Departure Station:
Change Arrival Station:
Post a Train Travel TipPost a Train Travel Tip **new
Post a Comment/Question/Picture/VideoPost a Comment/Question/Picture/Video
Pantry/Catering
✕ NO Pantry Car
✕ NO Catering
RSA - Rake Sharing
13119/Sealdah - Old Delhi Express
Rake/Coach Composition
LOCO-SLR-GS-GS-GS-GS-GS-GS-B1-S1-S2-S3-S4-GS-GS-SLR
Loco
BWN WDM-3A
News    PNR    Forum    Time-Table    Availability    Fare Chart    Map    Arr/Dep History    Trips    Gallery    ΣChains    X/O    Timeline    
Travel Time: 24h 25m    80 halts    Distance: 871 km    Avg Speed: 35 km/hr
Type: Mail/Express
Zone: ER/Eastern
Departs @ 21:15 (Avg on time)
Platform# 7
 MTW FS
Kolkata Sealdah/SDAH 
Arrives @ 21:40 +1 night (Avg 24m late)
Platform# ???
S TWT S
Varanasi Junction/BSB 

80 halts. 207 intermediate Stations between Kolkata Sealdah and Varanasi Junction

Show ALL intermediate Stations  Show Old Time-Table

#TrkCodeStation NameX/OArrivesAvgDepartsAvgHaltPFDay#KmSpeedElevZoneAddress
1/==/SDAHKolkata Sealdah (20)»  -21:15+0710.0258mERPh : 033-23503535 (For North: APC Roy Road) Kolkata 700014, West Bengal
2/==/BNXRBidhan Nagar Road (4)  21:23+021:24+01m213.3378mERKolkata, West Bengal
3/==/DAKEDakhineswar (2)  21:39-21:40-1m1112.76910mERDist - 24 paraganas ( North ), West Bengal
4/==/BWNBarddhaman Junction (8)X  22:57+523:02+55m11101.46034mERDist - Barddhaman, West Bengal
5%==%GKHGuskara (2)  23:35+1223:36+121m11134.24541mERDist - Bardhaman, West Bengal
6%==%BHPBolpur Shantiniketan (3)X  00:01+500:06+65m12153.13259mERDist - Birbhum, West Bengal
7%==%PNEPrantik (3)  00:14+700:15+81m12157.45748mERDist - Birbhum, West Bengal
8%==%AMPAhmadpur Junction (3)  00:31+900:32+91m12172.65346mERDist - Birbhum, West Bengal
9%==%SNTSainthia Junction (4)X  00:47+800:48+81m32185.96058mERDist - Birbhum, West Bengal
10%==%RPHRampurhat (3)X  01:16+1201:21+145m32213.95041mERDIST - Birbhum, West Bengal
11%==%NHTNalhati Junction (4)X  01:38+2001:40+202m32227.97048mERDist - Birbhum, West Bengal
12%==%MRRMurarai (3)  01:54+2001:55+261m12244.22836mERDist - Birbhum, West Bengal
13%==%RJGRajgram (3)X  02:20+1502:21+161m32255.84932mERDist - Birbhum, West Bengal
14%==%PKRPakur (2)X  02:34+1302:35+131m12266.43337mERDist:- Pakur, Jharkhand
15%==%KLPKotalpukur (3)  02:57+1102:58+121m--2278.43740mERKotalpukur, Jharkhand
16|==|BHWBarharwa Junction (3)X  03:21+1403:26+155m12292.57136mERBarharwa, Jharkhand
17|==!TPHTinpahar Junction (3)  03:39 03:40+1903:40 03:41+221m12309.15345mERBamangawan, Jharkhand
18!==!TLJTaljhari  03:49 03:52+2403:51 03:53+262 1m--2318.86438mERTaljhari, Jharkhand
19!==!SLJSakrigali Junction (3)  04:08 04:12+2704:10 04:13+302 1m--2339.12745mERSakrigali, Jharkhand
20!==!SBGSahibganj Junction (3)X  04:30+2604:38 04:37+318 7m22346.96538mERSahibganj, Jharkhand
21!==!MZCMirza Cheuki (3)  04:51+3904:53 04:52+422 1m12362.05138mERBihar, Bihar
22!==!PPTPirpainti (2)  05:02+4305:04 05:03+452 1m--2370.44453mERBhagalpur, Bihar
23!==!SVRPShivanarayanpur (2)  05:15+4505:17 05:16+472 1m--2379.32347mERShivanarayanpur, Bihar
24!==!BKSLBikram Shila (2)  05:25+4505:27 05:26+462 1m--2382.84458mERBikram Shila, Bihar
25!==!CLGKahalgaon (2)X  05:46 05:37+4405:48 05:38+472 1m22390.83344mERBhagalpur, Bihar
26!==!EKCEkchari (1)  05:55 05:46+4705:57 05:47+482 1m12395.24337mERNational Highway 80, Bihar
27!==!GGAGhoga (2)  06:04 05:55+4606:06 05:56+472 1m--2400.94742mERGhoga, Bihar
28!==!SBOSabaur (3)  06:21 06:12+5206:23 06:13+532 1m--2413.32042mERSabour, Bihar
29!==|BGPBhagalpur Junction (6)  06:36+4006:51+3615m--2420.94049mERBhagalpur, Bihar
30|==|NATNathnagar (2)XO  06:57 06:58+4206:59+432 1m--2425.53748mERBhagalpur, Bihar
31|==|MPYMurarpur (2)  07:07-07:08-1m--2430.53938mERMau, Bihar
32|==|AKNAkbarnagar (3)  07:15 07:16+3907:17+412 1m--2435.75539mERTilakpur, Bihar
33|==|SGGSultanGanj (3)  07:28+4007:29+411m--2445.84742mERSultanganj, Bihar
34|==|BUPBariarpur (3)X  07:52+3607:54+352m--2463.73642mERMunger, Bihar
35|=-|RPURRatanpur (2)  08:01 08:02+3508:03+372 1m--2468.62246mERRatanpur Railway Station, Bihar
36|-=|JMPJamalpur Junction (4)X  08:20+2808:35+2715m--2474.93859mERDist: Munger 06344-243101, Bihar
37|==|DRTPDasharathpur (2)  08:44 08:45+3208:46+332 1m--2481.24148mERDharhara, Bihar
38|==|DRHDharhara (2)X  08:53 08:54+3108:55+312 1m--2486.75055mERDharhara, Bihar
39|==|AHAAbhaipur (3)  09:06 09:07+3209:08+332 1m--2496.74452mERAbhaipur, Bihar
40!==!KJHKajra (2)  09:17 09:18+3209:19+332 1m--2504.01550mERLakhisarai District, Bihar
41|-=!KIULKiul Junction (5)X  10:22+410:30+58m--2519.71453mECRDist. Lakhisarai, Bihar
42/==/LKRLuckeesarai Junction (2)X  10:36+810:38+82m--2521.15352mECRLakhisarai, Bihar
43/==/BRYABarhiya (3)X  10:55+1010:57+152m--2536.27047mECRBarahiya, Bihar
44/==/HTZHathidah Junction (2)  11:05+1911:07+192m22545.54250mECRMusahari, Bihar
45/==/MKAMokama Junction (4)  11:19+1911:21+322m--2553.98848mECRPatna, Bihar
46/==/MORMor (2)X  11:26+3711:28+362m--2561.26146mECRMor, Bihar
47/==/PHKPunarakh (2)  11:36+3611:38+472m--2569.46851mECRPunarakh, Bihar
48/==/BARHBarh (3)X  11:47+4411:49+452m--2579.76849mECRBarh, Bihar
49/==/ATLAthmal Gola (2)O  11:57+5511:59+542m--2588.71552mECRPatna, Bihar
50/==/BKPBakhtiyarpur Junction (5)X  12:10 12:35+3312:12 12:37+402m--2597.89051mECRPatna, Bihar
51/==/KWOKarauta (2)X  12:18 12:43+3812:20 12:45+402m--2606.85052mECRKarauta, Bihar
52/==/KOOKhusropur (2)  12:27 12:52+4812:29 12:54+532m--2612.67452mECRPatna, Bihar
53/==/HDEHardas Bigha  12:36 12:59-12:37 13:01-1 2m--2618.72853mECRFatwah, Bihar
54/==/FUTFatwa (6)XO  13:06+5513:08+592m--2621.02053mECRPatna, Bihar
55/==/PNCPatna Saheb (3)O  13:43 13:44+3213:45 13:46+322m--2633.31359mECRPatna 800008, Bihar
56/==/GZHGulzarbagh (3)X  14:00+2914:02+312m--2636.33255mECRPatna, Bihar
57/==/RJPBRajendra Nagar Bihar (4)  14:10+3014:12+302m--2640.52055mECRPatna 800001, Bihar
58/==/PNBEPatna Junction (10)  14:20+2114:30+2110m42643.23657mECRPatna 800001, Bihar
59/==/PWSPhulwari Sharif (3)  14:40+3714:42+382m--2649.12658mECRPatna, Bihar
60/==/DNRDanapur (5)X  14:50+2815:00+2910m--2652.59158mECRKhagaul, Bihar
61/==/NEONeora (2)X  15:04+4315:06+432m--2658.66161mECRNational Highway 98, Bihar
62/==/SDESadisopur (2)X  15:13-15:14-1m--2665.75164mECRSadisopur, Bihar
63/==/BTABihta (2)X  15:19+4315:21+452m--2669.96362mECRDistt: Patna, Bihar
64/==/VHCHChakki Block CabinO  15:28 15:27+5415:30 15:29+542m--2676.23763mECRNational Highway 30, Bihar
65/==/KWRKoelwar (2)  15:33-15:35-2m--2678.63665mECRNational Highway 30, Bihar
66/==/KUAKulharia (2)X  15:41+4915:43+512m--2682.24061mECRChandi Sahar Rd, Bihar
67/==/ARAAra Junction (3)  15:58+3816:03+415m--2692.18563mECRDistt: Bhojpur Ph 06182-233411, Bihar
68/==/KRSKarisath (2)  16:11 16:10+5716:13 16:12+1:022m--2702.07765mECRKarisath, Bihar
69/==/BEABihiya (3)  16:22 16:21+1:0316:24 16:23+1:072m--2713.55967mECRBehea, Bihar
70/==/BYNBanahi (2)  16:30 16:29+1:1116:32 16:31+1:102m--2719.46667mECRBanahi, Bihar
71/==/RPRRaghunathpur (4)  16:40 16:39+1:1016:42 16:41+1:182m--2728.37269mECRRaghunathpur, Bihar
72/==/TWGTwining Ganj16:52 16:48+1:2016:54 16:50+1:202m--2736.74670mECRArrah Buxar Rd, Bihar
73/==/DUREDumraon (3)X  16:54 17:00+1:0916:56 17:02+1:132m--2744.23670mECRDumraon, Bihar
74/==/BXRBuxar (3)  17:17 17:29+5017:22 17:34+515m--2760.610967mECRBuxar, Bihar
75/==/CSAChausa (2)X  17:30 17:40+1:2917:32 17:42+1:392m--2771.59268mECRState Highway 14, Bihar
76/==/GMRGahmar (2)X  17:44 17:48+1:4417:46 17:50+1:442m--2780.86168mECRDistt: Ghazipur, Uttar Pradesh
77/==/BWHBhadaura (2)  17:53 17:58+1:3817:55 18:00+1:422m--2788.94769mECRGhazipur, Uttar Pradesh
78/==/DLNDildarnagar Junction (2)  18:05 18:10+1:3218:10 18:15+1:315m--2796.88172mECRDildarnagar, Uttar Pradesh
79/==/ZNAZamania (2)  18:20 18:25+1:3018:22 18:27+1:342m--2810.32277mECRGhazipur, Uttar Pradesh
80/==/SLDSakaldiha (2)XO  19:40 19:39+1:1419:41+1:141 2m--2836.31981mECRState Highway 69, Uttar Pradesh
81/==/MGSMughal Sarai Junction (8)X  20:40+3720:50+4010m32854.52083mECRDistt: Chandauli Pin 232101, Uttar Pradesh
82/==/BSBVaranasi Junction (9)•  21:40+24---2870.9-82mNRVaranasi 221002, Uttar Pradesh
Scroll to Top
Scroll to Bottom